KMSYKTUP

Guest
Details From KMSY - Louis Armstrong New Orleans Intl
To KTUP - Tupelo Rgnl
Flight Number -
Tags Generated
Created
Modified
Stats Distance 268 nm / 497 km
Max Altitude 0 ft / 0 m
Waypoints 3
Social Downloads 0
Likes 0
Share VATSIM

Download

Looking for another format? Having issues loading an existing format? Contact us
Advertisement - Login to hide

Notes

Generated

Route

KMSY R3106 KTUP

ID Type Via Altitude Latitude Longitude Leg Dist Tot Dist Heading (true) Name
O KMSY APT - 0 ft / 0 m 29.99177˚ -90.25724˚ - 0 nm - Louis Armstrong New Orleans Intl
R3106 FIX - 0 ft / 0 m 34.27704˚ -88.76992˚ 268 nm 268 nm 16° / 17° -
O KTUP APT - 0 ft / 0 m 34.27704˚ -88.76992˚ 0 nm 268 nm 0° / 180° -

Altitude Profile

Advertisement - Login to hide

Weather


0- 5 10 15 20 25 30 35+ Temperature / ° C

Clouds and Precipitation
Forecast for 2018-05-24 12:00 UTC. Updated 3 hours ago

Ground ~20,000 ft ~40,000 ft Winds

KMSY

Details ICAO KMSY (MSY)
Name Louis Armstrong New Orleans Intl
Region United States
Timezone America/Chicago (UTC-5.0)
Stats Elevation 3 ft / 1 m (AMSL)
Location 29.993349° -90.257406°
Runways 2
Magnetic Variation 0.782° W

METAR

KMSY 241353Z 06005KT 10SM FEW016 FEW150 SCT250 29/24 A3008 RMK AO2 SLP187 CB DSNT SW T02890239

Decode

TAF

TAF KMSY 241120Z 2412/2518 01006KT P6SM TS FEW009 BKN020CB BKN250 FM241400 03004KT P6SM VCTS BKN025CB FM242300 09005KT P6SM BKN030 BKN110 FM250200 00000KT P6SM BKN015 BKN110 FM251300 07005KT P6SM VCTS BKN010CB

Decode

Departure Runways

ID Width Length Bearing (true) Bearing (mag) Surface Threshold Offset Overrun Length
01 150 ft / 46 m 7,021 ft / 2,140 m 15.41° 16.19° Concrete 0 ft / 0 m 600 ft / 183 m
10 150 ft / 46 m 10,090 ft / 3,075 m 105.55° 106.33° Concrete 0 ft / 0 m 400 ft / 122 m
19 150 ft / 46 m 7,021 ft / 2,140 m 195.41° 196.19° Concrete 0 ft / 0 m 600 ft / 183 m
28 150 ft / 46 m 10,090 ft / 3,075 m 285.57° 286.35° Concrete 305 ft / 93 m 249 ft / 76 m

KTUP

Details ICAO KTUP (TUP)
Name TUPELO RGNL
Region United States
Timezone America/Chicago (UTC-5.0)
Stats Elevation 346 ft / 105 m (AMSL)
Location 34.268111° -88.769894°
Runways 1
Magnetic Variation 2.176° W

METAR

KTUP 241353Z 33005KT 10SM CLR A3012 RMK AO2 SLPNO $

Decode

TAF

KTUP 241135Z 2412/2512 VRB03KT P6SM SCT040 BKN250 FM241600 VRB03KT P6SM VCSH SCT040 SCT250 FM250200 VRB03KT P6SM FEW050 BKN250 FM250900 00000KT 4SM BR SCT250

Decode

Destination Runways

ID Width Length Bearing (true) Bearing (mag) Surface Threshold Offset Overrun Length
18 100 ft / 30 m 6,516 ft / 1,986 m 179.87° 182.05° Asphalt 0 ft / 0 m 0 ft / 0 m
36 100 ft / 30 m 6,516 ft / 1,986 m 359.87° 2.05° Asphalt 0 ft / 0 m 0 ft / 0 m

Approach Navaids

Runway Type Ident Frequency Range Bearing (true) Bearing (mag) Slope Elevation
36 Localiser ITUP 108.50 MHz 18 nm / 33 km 359.86° 2.04° - 346 ft / 105 m (AMSL)
36 Glidescope ITUP 108.50 MHz 10 nm / 19 km 359.87° 2.04° 3.00° 345 ft / 105 m (AMSL)